createdAt,value
2019-03-30T00:00:15.179Z,1002.01
2019-03-30T00:01:15.158Z,1002.03
2019-03-30T00:02:15.157Z,1002.06
2019-03-30T00:03:15.182Z,1002.03
2019-03-30T00:04:15.161Z,1002.00
2019-03-30T00:05:15.128Z,1002.03
2019-03-30T00:06:15.099Z,1002.00
2019-03-30T00:07:15.094Z,1002.05
2019-03-30T00:08:15.123Z,1002.01
2019-03-30T00:09:15.079Z,1001.96
2019-03-30T00:10:15.095Z,1001.99
2019-03-30T00:11:15.086Z,1001.99
2019-03-30T00:12:15.058Z,1001.93
2019-03-30T00:13:15.055Z,1001.94
2019-03-30T00:14:15.028Z,1001.89
2019-03-30T00:15:15.027Z,1001.89
2019-03-30T00:16:15.000Z,1001.93
2019-03-30T00:17:14.992Z,1001.89
2019-03-30T00:18:15.046Z,1001.89
2019-03-30T00:19:14.970Z,1001.89
2019-03-30T00:20:14.952Z,1001.87
2019-03-30T00:21:14.944Z,1001.86
2019-03-30T00:22:14.976Z,1001.87
2019-03-30T00:23:14.953Z,1001.82
2019-03-30T00:24:14.910Z,1001.77
2019-03-30T00:25:14.920Z,1001.86
2019-03-30T00:26:14.884Z,1001.81
2019-03-30T00:27:14.891Z,1001.80
2019-03-30T00:28:14.910Z,1001.72
2019-03-30T00:29:14.863Z,1001.74
2019-03-30T00:30:14.870Z,1001.80
2019-03-30T00:31:14.855Z,1001.76
2019-03-30T00:32:14.826Z,1001.69
2019-03-30T00:33:14.844Z,1001.72
2019-03-30T00:34:14.809Z,1001.69
2019-03-30T00:35:14.798Z,1001.73
2019-03-30T00:36:14.780Z,1001.70
2019-03-30T00:37:14.808Z,1001.74
2019-03-30T00:38:14.776Z,1001.72
2019-03-30T00:39:14.755Z,1001.77
2019-03-30T00:40:14.725Z,1001.74
2019-03-30T00:41:14.728Z,1001.75
2019-03-30T00:42:14.740Z,1001.78
2019-03-30T00:43:14.706Z,1001.71
2019-03-30T00:44:14.737Z,1001.75
2019-03-30T00:45:14.668Z,1001.68
2019-03-30T00:46:14.689Z,1001.70
2019-03-30T00:47:14.684Z,1001.70
2019-03-30T00:48:14.656Z,1001.69
2019-03-30T00:49:14.676Z,1001.74
2019-03-30T00:50:14.638Z,1001.68
2019-03-30T00:51:14.614Z,1001.64
2019-03-30T00:52:14.637Z,1001.64
2019-03-30T00:53:14.616Z,1001.69
2019-03-30T00:54:14.617Z,1001.56
2019-03-30T00:55:14.575Z,1001.64
2019-03-30T00:56:14.596Z,1001.59
2019-03-30T00:57:14.562Z,1001.59
2019-03-30T00:58:14.523Z,1001.62
2019-03-30T00:59:14.565Z,1001.58
2019-03-30T01:00:14.522Z,1001.52
2019-03-30T01:01:14.531Z,1001.56
2019-03-30T01:02:14.497Z,1001.53
2019-03-30T01:03:14.481Z,1001.51
2019-03-30T01:04:14.514Z,1001.50
2019-03-30T01:05:14.484Z,1001.53
2019-03-30T01:06:14.472Z,1001.47
2019-03-30T01:07:14.447Z,1001.47
2019-03-30T01:08:14.463Z,1001.48
2019-03-30T01:09:14.446Z,1001.47
2019-03-30T01:10:14.424Z,1001.44
2019-03-30T01:11:14.382Z,1001.46
2019-03-30T01:12:14.411Z,1001.42
2019-03-30T01:13:14.379Z,1001.46
2019-03-30T01:14:14.384Z,1001.46
2019-03-30T01:15:14.366Z,1001.47
2019-03-30T01:16:14.355Z,1001.44
2019-03-30T01:17:14.338Z,1001.50
2019-03-30T01:18:14.326Z,1001.44
2019-03-30T01:19:14.332Z,1001.38
2019-03-30T01:20:14.294Z,1001.37
2019-03-30T01:21:14.287Z,1001.38
2019-03-30T01:22:14.288Z,1001.39
2019-03-30T01:23:14.279Z,1001.33
2019-03-30T01:24:14.290Z,1001.35
2019-03-30T01:25:14.261Z,1001.33
2019-03-30T01:26:14.226Z,1001.35
2019-03-30T01:27:14.232Z,1001.38
2019-03-30T01:28:14.215Z,1001.32
2019-03-30T01:29:14.236Z,1001.34
2019-03-30T01:30:23.114Z,1001.26
2019-03-30T01:31:15.196Z,1001.25
2019-03-30T01:32:14.177Z,1001.23
2019-03-30T01:33:14.144Z,1001.31
2019-03-30T01:34:14.153Z,1001.29
2019-03-30T01:35:14.257Z,1001.26
2019-03-30T01:36:14.136Z,1001.26
2019-03-30T01:37:14.109Z,1001.24
2019-03-30T01:38:14.122Z,1001.24
2019-03-30T01:39:14.121Z,1001.21
2019-03-30T01:40:14.075Z,1001.20
2019-03-30T01:41:14.079Z,1001.23
2019-03-30T01:42:14.043Z,1001.24
2019-03-30T01:43:14.051Z,1001.21
2019-03-30T01:44:14.057Z,1001.25
2019-03-30T01:45:14.022Z,1001.20
2019-03-30T01:46:14.027Z,1001.21
2019-03-30T01:47:14.007Z,1001.25
2019-03-30T01:48:14.010Z,1001.23
2019-03-30T01:49:13.991Z,1001.26
2019-03-30T01:50:17.609Z,1001.23
2019-03-30T01:51:13.967Z,1001.23
2019-03-30T01:52:13.935Z,1001.25
2019-03-30T01:53:13.942Z,1001.25
2019-03-30T01:54:13.949Z,1001.19
2019-03-30T01:55:13.918Z,1001.21
2019-03-30T01:56:13.918Z,1001.23
2019-03-30T01:57:13.893Z,1001.22
2019-03-30T01:58:13.880Z,1001.22
2019-03-30T01:59:13.909Z,1001.19
2019-03-30T02:00:13.865Z,1001.21
2019-03-30T02:01:13.839Z,1001.17
2019-03-30T02:02:13.844Z,1001.18
2019-03-30T02:03:13.822Z,1001.15
2019-03-30T02:04:13.834Z,1001.16
2019-03-30T02:05:13.790Z,1001.16
2019-03-30T02:06:13.813Z,1001.16
2019-03-30T02:07:13.776Z,1001.15
2019-03-30T02:08:13.773Z,1001.15
2019-03-30T02:09:13.771Z,1001.08
2019-03-30T02:10:13.741Z,1001.13
2019-03-30T02:11:13.750Z,1001.05
2019-03-30T02:12:13.722Z,1001.06
2019-03-30T02:13:13.714Z,1001.07
2019-03-30T02:14:13.716Z,1001.09
2019-03-30T02:15:13.684Z,1001.07
2019-03-30T02:16:13.673Z,1001.05
2019-03-30T02:17:13.665Z,1001.03
2019-03-30T02:18:13.692Z,1001.03
2019-03-30T02:19:13.667Z,1001.05
2019-03-30T02:20:13.644Z,1001.01
2019-03-30T02:21:13.652Z,1001.04
2019-03-30T02:22:13.661Z,1001.02
2019-03-30T02:23:13.624Z,1001.00
2019-03-30T02:24:13.614Z,1001.02
2019-03-30T02:25:13.588Z,1000.98
2019-03-30T02:26:13.574Z,1000.98
2019-03-30T02:27:13.551Z,1001.01
2019-03-30T02:28:13.576Z,1000.97
2019-03-30T02:29:13.579Z,1000.98
2019-03-30T02:30:13.549Z,1000.99
2019-03-30T02:31:13.541Z,1000.94
2019-03-30T02:32:13.501Z,1001.02
2019-03-30T02:33:13.497Z,1000.97
2019-03-30T02:34:13.560Z,1000.96
2019-03-30T02:35:13.458Z,1000.97
2019-03-30T02:36:13.475Z,1000.99
2019-03-30T02:37:13.445Z,1000.91
2019-03-30T02:38:13.442Z,1000.95
2019-03-30T02:39:13.420Z,1000.96
2019-03-30T02:40:13.450Z,1000.94
2019-03-30T02:41:13.421Z,1000.94
2019-03-30T02:42:13.397Z,1000.92
2019-03-30T02:43:13.399Z,1000.94
2019-03-30T02:44:13.373Z,1000.90
2019-03-30T02:45:13.391Z,1000.88
2019-03-30T02:46:13.342Z,1000.93
2019-03-30T02:47:13.355Z,1000.91
2019-03-30T02:48:13.349Z,1000.89
2019-03-30T02:49:13.327Z,1000.93
2019-03-30T02:50:13.326Z,1000.93
2019-03-30T02:51:13.298Z,1000.93
2019-03-30T02:52:13.296Z,1000.84
2019-03-30T02:53:13.284Z,1000.86
2019-03-30T02:54:13.248Z,1000.81
2019-03-30T02:55:13.280Z,1000.84
2019-03-30T02:56:13.239Z,1000.83
2019-03-30T02:57:13.243Z,1000.82
2019-03-30T02:58:13.232Z,1000.79
2019-03-30T02:59:13.230Z,1000.79
2019-03-30T03:00:13.208Z,1000.77
2019-03-30T03:01:13.209Z,1000.75
2019-03-30T03:02:13.177Z,1000.74
2019-03-30T03:03:13.185Z,1000.75
2019-03-30T03:04:13.153Z,1000.70
2019-03-30T03:05:13.183Z,1000.70
2019-03-30T03:06:13.152Z,1000.74
2019-03-30T03:07:13.127Z,1000.70
2019-03-30T03:08:13.119Z,1000.70
2019-03-30T03:09:13.103Z,1000.69
2019-03-30T03:10:13.132Z,1000.68
2019-03-30T03:11:13.067Z,1000.69
2019-03-30T03:12:13.055Z,1000.69
2019-03-30T03:13:13.064Z,1000.64
2019-03-30T03:14:13.053Z,1000.66
2019-03-30T03:15:13.056Z,1000.65
2019-03-30T03:16:13.023Z,1000.68
2019-03-30T03:17:13.012Z,1000.63
2019-03-30T03:18:13.009Z,1000.66
2019-03-30T03:19:12.995Z,1000.62
2019-03-30T03:20:13.045Z,1000.60
2019-03-30T03:21:12.973Z,1000.58
2019-03-30T03:22:12.946Z,1000.50
2019-03-30T03:23:12.955Z,1000.55
2019-03-30T03:24:12.922Z,1000.54
2019-03-30T03:25:12.950Z,1000.55
2019-03-30T03:26:12.991Z,1000.53
2019-03-30T03:27:12.929Z,1000.52
2019-03-30T03:28:12.888Z,1000.56
2019-03-30T03:29:12.886Z,1000.49
2019-03-30T03:30:12.912Z,1000.52
2019-03-30T03:31:12.879Z,1000.52
2019-03-30T03:32:12.866Z,1000.52
2019-03-30T03:33:12.837Z,1000.47
2019-03-30T03:34:12.812Z,1000.51
2019-03-30T03:35:12.860Z,1000.56
2019-03-30T03:36:12.809Z,1000.49
2019-03-30T03:37:12.787Z,1000.51
2019-03-30T03:38:12.794Z,1000.46
2019-03-30T03:39:12.764Z,1000.53
2019-03-30T03:40:12.794Z,1000.42
2019-03-30T03:41:12.753Z,1000.40
2019-03-30T03:42:12.729Z,1000.46
2019-03-30T03:43:12.727Z,1000.44
2019-03-30T03:44:12.699Z,1000.49
2019-03-30T03:45:12.725Z,1000.37
2019-03-30T03:46:12.691Z,1000.45
2019-03-30T03:47:12.683Z,1000.45
2019-03-30T03:48:12.677Z,1000.44
2019-03-30T03:49:12.665Z,1000.44
2019-03-30T03:50:12.688Z,1000.46
2019-03-30T03:51:25.547Z,1000.50
2019-03-30T03:52:13.630Z,1000.47
2019-03-30T03:53:12.626Z,1000.43
2019-03-30T03:54:12.596Z,1000.52
2019-03-30T03:55:12.637Z,1000.51
2019-03-30T03:56:12.585Z,1000.45
2019-03-30T03:57:12.564Z,1000.46
2019-03-30T03:58:12.590Z,1000.48
2019-03-30T03:59:12.562Z,1000.50
2019-03-30T04:00:12.593Z,1000.48
2019-03-30T04:01:12.556Z,1000.47
2019-03-30T04:02:12.509Z,1000.51
2019-03-30T04:03:12.510Z,1000.42
2019-03-30T04:04:12.491Z,1000.45
2019-03-30T04:05:12.522Z,1000.46
2019-03-30T04:06:12.477Z,1000.43
2019-03-30T04:07:12.463Z,1000.44
2019-03-30T04:08:12.471Z,1000.45
2019-03-30T04:09:12.442Z,1000.46
2019-03-30T04:10:12.448Z,1000.44
2019-03-30T04:11:12.421Z,1000.45
2019-03-30T04:12:12.451Z,1000.48
2019-03-30T04:13:12.393Z,1000.46
2019-03-30T04:14:12.390Z,1000.44
2019-03-30T04:15:12.417Z,1000.45
2019-03-30T04:16:12.395Z,1000.43
2019-03-30T04:17:12.358Z,1000.42
2019-03-30T04:18:12.362Z,1000.44
2019-03-30T04:19:12.333Z,1000.47
2019-03-30T04:20:12.350Z,1000.47
2019-03-30T04:21:12.318Z,1000.46
2019-03-30T04:22:12.311Z,1000.43
2019-03-30T04:23:12.304Z,1000.46
2019-03-30T04:24:12.290Z,1000.44
2019-03-30T04:25:12.300Z,1000.39
2019-03-30T04:26:12.269Z,1000.43
2019-03-30T04:27:12.242Z,1000.30
2019-03-30T04:28:12.233Z,1000.33
2019-03-30T04:29:12.230Z,1000.39
2019-03-30T04:30:12.208Z,1000.31
2019-03-30T04:31:12.235Z,1000.35
2019-03-30T04:32:12.197Z,1000.35
2019-03-30T04:33:12.206Z,1000.34
2019-03-30T04:34:12.168Z,1000.34
2019-03-30T04:35:12.180Z,1000.35
2019-03-30T04:36:12.178Z,1000.30
2019-03-30T04:37:12.146Z,1000.32
2019-03-30T04:38:14.254Z,1000.21
2019-03-30T04:39:12.127Z,1000.26
2019-03-30T04:40:12.126Z,1000.24
2019-03-30T04:41:12.133Z,1000.19
2019-03-30T04:42:12.077Z,1000.26
2019-03-30T04:43:12.073Z,1000.25
2019-03-30T04:44:12.085Z,1000.20
2019-03-30T04:45:12.064Z,1000.23
2019-03-30T04:46:12.068Z,1000.25
2019-03-30T04:47:12.033Z,1000.23
2019-03-30T04:48:12.030Z,1000.20
2019-03-30T04:49:12.010Z,1000.10
2019-03-30T04:50:12.010Z,1000.23
2019-03-30T04:51:12.016Z,1000.18
2019-03-30T04:52:11.976Z,1000.02
2019-03-30T04:53:11.961Z,1000.18
2019-03-30T04:54:11.945Z,1000.17
2019-03-30T04:55:11.959Z,1000.15
2019-03-30T04:56:11.968Z,1000.20
2019-03-30T04:57:11.930Z,1000.18
2019-03-30T04:58:11.909Z,1000.12
2019-03-30T04:59:11.908Z,1000.03
2019-03-30T05:00:11.924Z,1000.02
2019-03-30T05:01:11.916Z,1000.11
2019-03-30T05:02:11.861Z,1000.14
2019-03-30T05:03:11.867Z,1000.12
2019-03-30T05:04:11.858Z,1000.11
2019-03-30T05:05:11.835Z,1000.15
2019-03-30T05:06:11.871Z,1000.17
2019-03-30T05:07:11.828Z,1000.19
2019-03-30T05:08:11.824Z,1000.20
2019-03-30T05:09:11.787Z,1000.14
2019-03-30T05:10:11.796Z,1000.23
2019-03-30T05:11:11.791Z,1000.21
2019-03-30T05:12:11.760Z,1000.19
2019-03-30T05:13:11.748Z,1000.21
2019-03-30T05:14:11.735Z,1000.17
2019-03-30T05:15:11.736Z,1000.21
2019-03-30T05:16:11.725Z,1000.29
2019-03-30T05:17:11.721Z,1000.23
2019-03-30T05:18:11.695Z,1000.19
2019-03-30T05:19:11.682Z,1000.18
2019-03-30T05:20:11.656Z,1000.15
2019-03-30T05:21:11.690Z,1000.21
2019-03-30T05:22:16.233Z,1000.22
2019-03-30T05:23:11.713Z,1000.15
2019-03-30T05:24:11.632Z,1000.21
2019-03-30T05:25:11.628Z,1000.21
2019-03-30T05:26:11.642Z,1000.16
2019-03-30T05:27:11.600Z,1000.24
2019-03-30T05:28:11.583Z,1000.25
2019-03-30T05:29:11.565Z,1000.20
2019-03-30T05:30:11.571Z,1000.20
2019-03-30T05:31:11.580Z,1000.21
2019-03-30T05:32:11.542Z,1000.15
2019-03-30T05:33:11.540Z,1000.17
2019-03-30T05:34:11.540Z,1000.17
2019-03-30T05:35:11.515Z,1000.22
2019-03-30T05:36:11.532Z,1000.17
2019-03-30T05:37:11.501Z,1000.22
2019-03-30T05:38:11.483Z,1000.20
2019-03-30T05:39:11.470Z,1000.20
2019-03-30T05:40:11.471Z,1000.21
2019-03-30T05:41:11.460Z,1000.18
2019-03-30T05:42:11.440Z,1000.23
2019-03-30T05:43:11.416Z,1000.28
2019-03-30T05:44:11.415Z,1000.30
2019-03-30T05:45:11.449Z,1000.32
2019-03-30T05:46:11.482Z,1000.36
2019-03-30T05:47:11.382Z,1000.35
2019-03-30T05:48:11.378Z,1000.31
2019-03-30T05:49:11.356Z,1000.24
2019-03-30T05:50:11.336Z,1000.30
2019-03-30T05:51:11.361Z,1000.30
2019-03-30T05:52:25.508Z,1000.30
2019-03-30T05:53:12.323Z,1000.39
2019-03-30T05:54:11.298Z,1000.32
2019-03-30T05:55:11.290Z,1000.34
2019-03-30T05:56:11.319Z,1000.29
2019-03-30T05:57:11.273Z,1000.30
2019-03-30T05:58:11.252Z,1000.29
2019-03-30T05:59:11.440Z,1000.32
2019-03-30T06:00:11.235Z,1000.31
2019-03-30T06:01:11.237Z,1000.35
2019-03-30T06:02:11.238Z,1000.32
2019-03-30T06:03:11.261Z,1000.30
2019-03-30T06:04:11.214Z,1000.36
2019-03-30T06:05:11.747Z,1000.33
2019-03-30T06:06:11.195Z,1000.35
2019-03-30T06:07:11.212Z,1000.36
2019-03-30T06:08:11.157Z,1000.33
2019-03-30T06:09:11.160Z,1000.29
2019-03-30T06:10:11.148Z,1000.25
2019-03-30T06:11:11.180Z,1000.37
2019-03-30T06:12:11.125Z,1000.35
2019-03-30T06:13:11.113Z,1000.32
2019-03-30T06:14:11.102Z,1000.36
2019-03-30T06:15:11.092Z,1000.34
2019-03-30T06:16:11.100Z,1000.37
2019-03-30T06:17:12.046Z,1000.36
2019-03-30T06:18:11.498Z,1000.27
2019-03-30T06:19:11.043Z,1000.36
2019-03-30T06:20:11.020Z,1000.32
2019-03-30T06:21:11.040Z,1000.23
2019-03-30T06:22:11.003Z,1000.27
2019-03-30T06:23:11.009Z,1000.31
2019-03-30T06:24:10.982Z,1000.26
2019-03-30T06:25:10.956Z,1000.24
2019-03-30T06:26:10.974Z,1000.21
2019-03-30T06:27:10.954Z,1000.26
2019-03-30T06:28:11.519Z,1000.23
2019-03-30T06:29:10.953Z,1000.29
2019-03-30T06:30:10.911Z,1000.19
2019-03-30T06:31:10.934Z,1000.18
2019-03-30T06:32:10.898Z,1000.25
2019-03-30T06:33:10.900Z,1000.25
2019-03-30T06:34:10.883Z,1000.22
2019-03-30T06:35:10.865Z,1000.30
2019-03-30T06:36:10.869Z,1000.27
2019-03-30T06:37:10.852Z,1000.29
2019-03-30T06:38:10.834Z,1000.28
2019-03-30T06:39:10.826Z,1000.23
2019-03-30T06:40:10.815Z,1000.29
2019-03-30T06:41:10.828Z,1000.25
2019-03-30T06:42:10.797Z,1000.26
2019-03-30T06:43:10.782Z,1000.30
2019-03-30T06:44:10.774Z,1000.29
2019-03-30T06:45:10.770Z,1000.28
2019-03-30T06:46:10.788Z,1000.30
2019-03-30T06:47:10.750Z,1000.31
2019-03-30T06:48:10.726Z,1000.29
2019-03-30T06:49:10.714Z,1000.31
2019-03-30T06:50:10.785Z,1000.27
2019-03-30T06:51:10.735Z,1000.27
2019-03-30T06:52:10.695Z,1000.32
2019-03-30T06:53:10.668Z,1000.29
2019-03-30T06:54:10.670Z,1000.24
2019-03-30T06:55:10.664Z,1000.29
2019-03-30T06:56:10.676Z,1000.30
2019-03-30T06:57:10.662Z,1000.30
2019-03-30T06:58:10.621Z,1000.29
2019-03-30T06:59:10.646Z,1000.36
2019-03-30T07:00:10.616Z,1000.28
2019-03-30T07:01:10.627Z,1000.18
2019-03-30T07:02:10.585Z,1000.28
2019-03-30T07:03:10.565Z,1000.30
2019-03-30T07:04:11.389Z,1000.34
2019-03-30T07:05:10.573Z,1000.32
2019-03-30T07:06:10.589Z,1000.37
2019-03-30T07:07:10.517Z,1000.31
2019-03-30T07:08:10.528Z,1000.41
2019-03-30T07:09:10.524Z,1000.37
2019-03-30T07:10:10.499Z,1000.34
2019-03-30T07:11:21.115Z,1000.40
2019-03-30T07:12:11.536Z,1000.38
2019-03-30T07:13:10.468Z,1000.33
2019-03-30T07:14:10.472Z,1000.30
2019-03-30T07:15:10.453Z,1000.32
2019-03-30T07:16:10.441Z,1000.31
2019-03-30T07:17:10.447Z,1000.39
2019-03-30T07:18:10.416Z,1000.33
2019-03-30T07:19:10.434Z,1000.35
2019-03-30T07:20:10.382Z,1000.31
2019-03-30T07:21:10.436Z,1000.29
2019-03-30T07:22:10.403Z,1000.26
2019-03-30T07:23:12.304Z,1000.33
2019-03-30T07:24:10.358Z,1000.29
2019-03-30T07:25:10.354Z,1000.29
2019-03-30T07:26:10.376Z,1000.28
2019-03-30T07:27:10.354Z,1000.31
2019-03-30T07:28:10.332Z,1000.30
2019-03-30T07:29:10.332Z,1000.29
2019-03-30T07:30:10.331Z,1000.27
2019-03-30T07:31:10.321Z,1000.26
2019-03-30T07:32:10.338Z,1000.24
2019-03-30T07:33:10.271Z,1000.34
2019-03-30T07:34:10.252Z,1000.25
2019-03-30T07:35:10.273Z,1000.29
2019-03-30T07:36:10.297Z,1000.30
2019-03-30T07:37:10.268Z,1000.19
2019-03-30T07:38:10.229Z,1000.22
2019-03-30T07:39:10.227Z,1000.24
2019-03-30T07:40:10.192Z,1000.25
2019-03-30T07:41:10.195Z,1000.21
2019-03-30T07:42:10.207Z,1000.25
2019-03-30T07:43:10.179Z,1000.31
2019-03-30T07:44:10.205Z,1000.29
2019-03-30T07:45:10.155Z,1000.23
2019-03-30T07:46:10.159Z,1000.24
2019-03-30T07:47:10.178Z,1000.22
2019-03-30T07:48:10.137Z,1000.23
2019-03-30T07:49:10.136Z,1000.31
2019-03-30T07:50:10.132Z,1000.23
2019-03-30T07:51:10.133Z,1000.21
2019-03-30T07:52:10.118Z,1000.24
2019-03-30T07:53:10.124Z,1000.20
2019-03-30T07:54:10.097Z,1000.25
2019-03-30T07:55:10.074Z,1000.24
2019-03-30T07:56:10.053Z,1000.32
2019-03-30T07:57:16.868Z,1000.24
2019-03-30T07:58:11.049Z,1000.31
2019-03-30T07:59:10.073Z,1000.27
2019-03-30T08:00:10.008Z,1000.34
2019-03-30T08:01:10.024Z,1000.26
2019-03-30T08:02:10.007Z,1000.32
2019-03-30T08:03:10.004Z,1000.26
2019-03-30T08:04:09.982Z,1000.24
2019-03-30T08:05:09.967Z,1000.31
2019-03-30T08:06:09.978Z,1000.30
2019-03-30T08:07:10.022Z,1000.30
2019-03-30T08:08:09.941Z,1000.31
2019-03-30T08:09:09.928Z,1000.31
2019-03-30T08:10:09.941Z,1000.35
2019-03-30T08:11:09.912Z,1000.42
2019-03-30T08:12:09.909Z,1000.37
2019-03-30T08:13:09.926Z,1000.42
2019-03-30T08:14:09.887Z,1000.39
2019-03-30T08:15:09.860Z,1000.39
2019-03-30T08:16:09.864Z,1000.39
2019-03-30T08:17:09.927Z,1000.40
2019-03-30T08:18:09.843Z,1000.41
2019-03-30T08:19:09.829Z,1000.36
2019-03-30T08:20:09.817Z,1000.39
2019-03-30T08:21:09.783Z,1000.40
2019-03-30T08:22:09.873Z,1000.37
2019-03-30T08:23:09.790Z,1000.38
2019-03-30T08:24:09.779Z,1000.40
2019-03-30T08:25:09.798Z,1000.42
2019-03-30T08:26:09.769Z,1000.33
2019-03-30T08:27:09.780Z,1000.37
2019-03-30T08:28:09.763Z,1000.39
2019-03-30T08:29:09.727Z,1000.41
2019-03-30T08:30:09.731Z,1000.46
2019-03-30T08:31:09.713Z,1000.51
2019-03-30T08:32:09.772Z,1000.46
2019-03-30T08:33:09.716Z,1000.41
2019-03-30T08:34:09.693Z,1000.43
2019-03-30T08:35:09.680Z,1000.43
2019-03-30T08:36:09.682Z,1000.45
2019-03-30T08:37:09.801Z,1000.42
2019-03-30T08:38:09.661Z,1000.44
2019-03-30T08:39:09.636Z,1000.42
2019-03-30T08:40:09.646Z,1000.36
2019-03-30T08:41:09.606Z,1000.36
2019-03-30T08:42:09.642Z,1000.36
2019-03-30T08:43:09.654Z,1000.36
2019-03-30T08:44:09.630Z,1000.30
2019-03-30T08:45:09.550Z,1000.31
2019-03-30T08:46:09.567Z,1000.29
2019-03-30T08:47:09.582Z,1000.29
2019-03-30T08:48:09.571Z,1000.32
2019-03-30T08:49:09.553Z,1000.29
2019-03-30T08:50:09.546Z,1000.30
2019-03-30T08:51:09.518Z,1000.25
2019-03-30T08:52:09.554Z,1000.30
2019-03-30T08:53:09.508Z,1000.31
2019-03-30T08:54:09.518Z,1000.29
2019-03-30T08:55:09.477Z,1000.29
2019-03-30T08:56:09.469Z,1000.28
2019-03-30T08:57:09.462Z,1000.22
2019-03-30T08:58:09.472Z,1000.22
2019-03-30T08:59:09.492Z,1000.24
2019-03-30T09:00:09.440Z,1000.25
2019-03-30T09:01:09.444Z,1000.21
2019-03-30T09:02:09.421Z,1000.25
2019-03-30T09:03:09.473Z,1000.29
2019-03-30T09:04:09.427Z,1000.28
2019-03-30T09:05:09.393Z,1000.25
2019-03-30T09:06:09.397Z,1000.25
2019-03-30T09:07:09.377Z,1000.22
2019-03-30T09:08:09.421Z,1000.23
2019-03-30T09:09:09.363Z,1000.18
2019-03-30T09:10:09.364Z,1000.20
2019-03-30T09:11:09.348Z,1000.24
2019-03-30T09:12:09.327Z,1000.20
2019-03-30T09:13:09.375Z,1000.18
2019-03-30T09:14:09.318Z,1000.09
2019-03-30T09:15:09.316Z,1000.11
2019-03-30T09:16:09.289Z,1000.11
2019-03-30T09:17:09.270Z,1000.11
2019-03-30T09:18:09.286Z,1000.09
2019-03-30T09:19:09.286Z,1000.17
2019-03-30T09:20:09.265Z,1000.05
2019-03-30T09:21:09.270Z,1000.08
2019-03-30T09:22:09.234Z,1000.12
2019-03-30T09:23:09.254Z,1000.04
2019-03-30T09:24:10.321Z,1000.02
2019-03-30T09:25:09.201Z,1000.05
2019-03-30T09:26:09.187Z,1000.05
2019-03-30T09:27:09.204Z,1000.03
2019-03-30T09:28:09.211Z,1000.00
2019-03-30T09:29:09.186Z,999.93
2019-03-30T09:30:09.170Z,999.95
2019-03-30T09:31:09.169Z,999.92
2019-03-30T09:32:14.585Z,999.94
2019-03-30T09:33:10.157Z,999.94
2019-03-30T09:34:09.138Z,999.87
2019-03-30T09:35:09.123Z,999.85
2019-03-30T09:36:09.129Z,999.87
2019-03-30T09:37:09.137Z,999.83
2019-03-30T09:38:09.116Z,999.84
2019-03-30T09:39:09.081Z,999.84
2019-03-30T09:40:09.087Z,999.81
2019-03-30T09:41:09.086Z,999.80
2019-03-30T09:42:09.060Z,999.81
2019-03-30T09:43:09.026Z,999.77
2019-03-30T09:44:09.021Z,999.79
2019-03-30T09:45:09.001Z,999.80
2019-03-30T09:46:09.011Z,999.75
2019-03-30T09:47:08.998Z,999.79
2019-03-30T09:48:09.010Z,999.70
2019-03-30T09:49:08.993Z,999.82
2019-03-30T09:50:08.964Z,999.78
2019-03-30T09:51:08.997Z,999.78
2019-03-30T09:52:08.954Z,999.68
2019-03-30T09:53:08.928Z,999.66
2019-03-30T09:54:22.795Z,999.70
2019-03-30T09:55:10.020Z,999.72
2019-03-30T09:56:08.966Z,999.71
2019-03-30T09:57:08.917Z,999.71
2019-03-30T09:58:08.893Z,999.63
2019-03-30T09:59:08.861Z,999.61
2019-03-30T10:00:08.875Z,999.64
2019-03-30T10:01:08.883Z,999.67
2019-03-30T10:02:08.866Z,999.65
2019-03-30T10:03:08.859Z,999.62
2019-03-30T10:04:08.839Z,999.69
2019-03-30T10:05:08.835Z,999.62
2019-03-30T10:06:08.836Z,999.63
2019-03-30T10:07:08.784Z,999.60
2019-03-30T10:08:08.796Z,999.56
2019-03-30T10:09:08.793Z,999.58
2019-03-30T10:10:08.785Z,999.57
2019-03-30T10:11:08.817Z,999.62
2019-03-30T10:12:08.737Z,999.49
2019-03-30T10:13:08.789Z,999.59
2019-03-30T10:14:08.778Z,999.49
2019-03-30T10:15:08.756Z,999.52
2019-03-30T10:16:08.757Z,999.63
2019-03-30T10:17:08.708Z,999.47
2019-03-30T10:18:08.695Z,999.39
2019-03-30T10:19:08.708Z,999.51
2019-03-30T10:20:08.666Z,999.54
2019-03-30T10:21:08.709Z,999.60
2019-03-30T10:22:08.660Z,999.41
2019-03-30T10:23:08.647Z,999.55
2019-03-30T10:24:08.626Z,999.52
2019-03-30T10:25:08.653Z,999.54
2019-03-30T10:26:08.669Z,999.49
2019-03-30T10:27:08.646Z,999.49
2019-03-30T10:28:08.614Z,999.52
2019-03-30T10:29:08.580Z,999.48
2019-03-30T10:30:08.571Z,999.51
2019-03-30T10:31:08.597Z,999.45
2019-03-30T10:32:08.617Z,999.45
2019-03-30T10:33:08.578Z,999.51
2019-03-30T10:34:08.597Z,999.46
2019-03-30T10:35:08.541Z,999.45
2019-03-30T10:36:08.602Z,999.36
2019-03-30T10:37:08.508Z,999.37
2019-03-30T10:38:08.534Z,999.37
2019-03-30T10:39:08.507Z,999.36
2019-03-30T10:40:08.500Z,999.32
2019-03-30T10:41:08.517Z,999.33
2019-03-30T10:42:08.500Z,999.32
2019-03-30T10:43:08.444Z,999.39
2019-03-30T10:44:08.455Z,999.41
2019-03-30T10:45:08.467Z,999.32
2019-03-30T10:46:08.456Z,999.24
2019-03-30T10:47:08.436Z,999.27
2019-03-30T10:48:08.389Z,999.26
2019-03-30T10:49:08.387Z,999.27
2019-03-30T10:50:08.427Z,999.18
2019-03-30T10:51:08.900Z,999.29
2019-03-30T10:52:08.353Z,999.19
2019-03-30T10:53:08.359Z,999.15
2019-03-30T10:54:08.329Z,999.12
2019-03-30T10:55:08.337Z,999.22
2019-03-30T10:56:08.380Z,999.23
2019-03-30T10:57:08.315Z,999.19
2019-03-30T10:58:08.325Z,999.15
2019-03-30T10:59:08.304Z,999.17
2019-03-30T11:00:08.268Z,999.13
2019-03-30T11:01:08.285Z,999.13
2019-03-30T11:02:08.254Z,999.17
2019-03-30T11:03:08.238Z,999.09
2019-03-30T11:04:08.240Z,999.12
2019-03-30T11:05:08.239Z,999.08
2019-03-30T11:06:08.231Z,999.02
2019-03-30T11:07:08.220Z,999.10
2019-03-30T11:08:08.217Z,999.01
2019-03-30T11:09:08.388Z,999.04
2019-03-30T11:10:08.231Z,999.02
2019-03-30T11:11:08.186Z,998.98
2019-03-30T11:12:08.226Z,999.02
2019-03-30T11:13:08.163Z,998.91
2019-03-30T11:14:08.125Z,999.00
2019-03-30T11:15:08.151Z,998.94
2019-03-30T11:16:08.106Z,998.95
2019-03-30T11:17:08.121Z,998.93
2019-03-30T11:18:08.124Z,998.95
2019-03-30T11:19:08.091Z,998.95
2019-03-30T11:20:08.090Z,998.98
2019-03-30T11:21:08.067Z,998.90
2019-03-30T11:22:08.086Z,999.04
2019-03-30T11:23:08.079Z,998.98
2019-03-30T11:24:08.079Z,998.91
2019-03-30T11:25:09.083Z,998.97
2019-03-30T11:26:08.002Z,998.95
2019-03-30T11:27:08.006Z,998.98
2019-03-30T11:28:07.974Z,998.94
2019-03-30T11:29:07.998Z,998.88
2019-03-30T11:30:07.961Z,998.86
2019-03-30T11:31:07.951Z,998.90
2019-03-30T11:32:07.985Z,998.87
2019-03-30T11:33:07.967Z,998.88
2019-03-30T11:34:07.992Z,998.82
2019-03-30T11:35:07.924Z,998.77
2019-03-30T11:36:07.904Z,998.75
2019-03-30T11:37:12.266Z,998.81
2019-03-30T11:38:07.904Z,998.84
2019-03-30T11:39:07.869Z,998.77
2019-03-30T11:40:07.898Z,998.72
2019-03-30T11:41:07.845Z,998.68
2019-03-30T11:42:07.863Z,998.76
2019-03-30T11:43:07.873Z,998.73
2019-03-30T11:44:07.829Z,998.67
2019-03-30T11:45:07.825Z,998.72
2019-03-30T11:46:07.865Z,998.61
2019-03-30T11:47:07.825Z,998.66
2019-03-30T11:48:07.783Z,998.63
2019-03-30T11:49:07.764Z,998.56
2019-03-30T11:50:07.805Z,998.51
2019-03-30T11:51:07.741Z,998.62
2019-03-30T11:52:07.805Z,998.54
2019-03-30T11:53:07.954Z,998.60
2019-03-30T11:54:07.734Z,998.61
2019-03-30T11:55:21.188Z,998.55
2019-03-30T11:56:08.713Z,998.57
2019-03-30T11:57:07.704Z,998.51
2019-03-30T11:58:07.689Z,998.46
2019-03-30T11:59:07.678Z,998.48
2019-03-30T12:00:07.684Z,998.51
2019-03-30T12:01:07.686Z,998.44
2019-03-30T12:02:07.697Z,998.49
2019-03-30T12:03:07.675Z,998.52
2019-03-30T12:04:07.633Z,998.56
2019-03-30T12:05:07.640Z,998.56
2019-03-30T12:06:07.595Z,998.45
2019-03-30T12:07:07.601Z,998.44
2019-03-30T12:08:07.609Z,998.44
2019-03-30T12:09:07.576Z,998.37
2019-03-30T12:10:07.548Z,998.33